sensor_id;sensor_type;location;lat;lon;timestamp;P1;durP1;ratioP1;P2;durP2;ratioP2
83115;SDS011;72996;40.206;44.498;2024-02-14T00:00:10;34.42;;;15.40;;
83115;SDS011;72996;40.206;44.498;2024-02-14T00:02:44;32.85;;;15.20;;
83115;SDS011;72996;40.206;44.498;2024-02-14T00:05:11;32.50;;;14.98;;
83115;SDS011;72996;40.206;44.498;2024-02-14T00:07:37;28.42;;;13.38;;
83115;SDS011;72996;40.206;44.498;2024-02-14T00:10:04;31.20;;;13.75;;
83115;SDS011;72996;40.206;44.498;2024-02-14T00:12:31;31.90;;;15.55;;
83115;SDS011;72996;40.206;44.498;2024-02-14T00:14:57;32.50;;;14.32;;
83115;SDS011;72996;40.206;44.498;2024-02-14T00:17:23;32.72;;;14.02;;
83115;SDS011;72996;40.206;44.498;2024-02-14T00:19:50;32.92;;;14.45;;
83115;SDS011;72996;40.206;44.498;2024-02-14T00:22:16;30.60;;;13.68;;
83115;SDS011;72996;40.206;44.498;2024-02-14T00:24:42;33.42;;;14.10;;
83115;SDS011;72996;40.206;44.498;2024-02-14T00:27:08;31.85;;;13.73;;
83115;SDS011;72996;40.206;44.498;2024-02-14T00:29:33;31.55;;;14.57;;
83115;SDS011;72996;40.206;44.498;2024-02-14T00:31:59;35.85;;;15.50;;
83115;SDS011;72996;40.206;44.498;2024-02-14T00:34:25;30.35;;;13.60;;
83115;SDS011;72996;40.206;44.498;2024-02-14T00:36:51;31.23;;;13.43;;
83115;SDS011;72996;40.206;44.498;2024-02-14T00:39:17;33.33;;;14.00;;
83115;SDS011;72996;40.206;44.498;2024-02-14T00:41:42;31.77;;;14.77;;
83115;SDS011;72996;40.206;44.498;2024-02-14T00:44:08;28.73;;;13.68;;
83115;SDS011;72996;40.206;44.498;2024-02-14T00:46:34;33.65;;;14.63;;
83115;SDS011;72996;40.206;44.498;2024-02-14T00:49:00;34.72;;;13.70;;
83115;SDS011;72996;40.206;44.498;2024-02-14T00:51:25;33.25;;;14.52;;
83115;SDS011;72996;40.206;44.498;2024-02-14T00:53:51;29.65;;;13.68;;
83115;SDS011;72996;40.206;44.498;2024-02-14T00:56:17;27.58;;;13.55;;
83115;SDS011;72996;40.206;44.498;2024-02-14T00:58:43;29.10;;;13.48;;
83115;SDS011;72996;40.206;44.498;2024-02-14T01:01:09;30.17;;;13.40;;
83115;SDS011;72996;40.206;44.498;2024-02-14T01:03:34;30.40;;;14.35;;
83115;SDS011;72996;40.206;44.498;2024-02-14T01:06:00;36.42;;;15.85;;
83115;SDS011;72996;40.206;44.498;2024-02-14T01:08:26;32.92;;;14.73;;
83115;SDS011;72996;40.206;44.498;2024-02-14T01:10:51;31.48;;;14.82;;
83115;SDS011;72996;40.206;44.498;2024-02-14T01:13:18;36.38;;;14.70;;
83115;SDS011;72996;40.206;44.498;2024-02-14T01:15:43;27.92;;;13.63;;
83115;SDS011;72996;40.206;44.498;2024-02-14T01:18:09;31.33;;;13.98;;
83115;SDS011;72996;40.206;44.498;2024-02-14T01:20:35;28.58;;;14.50;;
83115;SDS011;72996;40.206;44.498;2024-02-14T01:23:02;29.25;;;13.23;;
83115;SDS011;72996;40.206;44.498;2024-02-14T01:25:28;30.85;;;13.18;;
83115;SDS011;72996;40.206;44.498;2024-02-14T01:27:54;29.35;;;13.05;;
83115;SDS011;72996;40.206;44.498;2024-02-14T01:30:20;28.55;;;12.50;;
83115;SDS011;72996;40.206;44.498;2024-02-14T01:32:45;30.58;;;13.32;;
83115;SDS011;72996;40.206;44.498;2024-02-14T01:35:11;29.48;;;12.52;;
83115;SDS011;72996;40.206;44.498;2024-02-14T01:37:38;24.63;;;11.75;;
83115;SDS011;72996;40.206;44.498;2024-02-14T01:40:04;27.65;;;12.15;;
83115;SDS011;72996;40.206;44.498;2024-02-14T01:42:32;24.10;;;11.05;;
83115;SDS011;72996;40.206;44.498;2024-02-14T01:44:58;26.23;;;11.73;;
83115;SDS011;72996;40.206;44.498;2024-02-14T01:47:23;24.50;;;12.65;;
83115;SDS011;72996;40.206;44.498;2024-02-14T01:49:49;25.33;;;11.32;;
83115;SDS011;72996;40.206;44.498;2024-02-14T01:52:15;27.05;;;11.82;;
83115;SDS011;72996;40.206;44.498;2024-02-14T01:54:41;24.95;;;11.85;;
83115;SDS011;72996;40.206;44.498;2024-02-14T01:57:07;28.70;;;11.75;;
83115;SDS011;72996;40.206;44.498;2024-02-14T01:59:34;26.58;;;12.95;;
83115;SDS011;72996;40.206;44.498;2024-02-14T02:02:00;29.17;;;12.73;;
83115;SDS011;72996;40.206;44.498;2024-02-14T02:04:25;30.70;;;12.95;;
83115;SDS011;72996;40.206;44.498;2024-02-14T02:06:51;29.20;;;12.23;;
83115;SDS011;72996;40.206;44.498;2024-02-14T02:09:21;29.77;;;13.48;;
83115;SDS011;72996;40.206;44.498;2024-02-14T02:11:48;34.47;;;14.13;;
83115;SDS011;72996;40.206;44.498;2024-02-14T02:14:15;30.10;;;13.30;;
83115;SDS011;72996;40.206;44.498;2024-02-14T02:16:44;27.70;;;12.77;;
83115;SDS011;72996;40.206;44.498;2024-02-14T02:19:11;30.67;;;13.68;;
83115;SDS011;72996;40.206;44.498;2024-02-14T02:21:37;28.08;;;13.20;;
83115;SDS011;72996;40.206;44.498;2024-02-14T02:24:02;31.52;;;12.90;;
83115;SDS011;72996;40.206;44.498;2024-02-14T02:26:28;31.67;;;13.07;;
83115;SDS011;72996;40.206;44.498;2024-02-14T02:28:54;27.20;;;14.13;;
83115;SDS011;72996;40.206;44.498;2024-02-14T02:31:20;35.08;;;14.32;;
83115;SDS011;72996;40.206;44.498;2024-02-14T02:33:47;35.22;;;14.23;;
83115;SDS011;72996;40.206;44.498;2024-02-14T02:36:15;34.67;;;14.45;;
83115;SDS011;72996;40.206;44.498;2024-02-14T02:38:43;32.30;;;14.57;;
83115;SDS011;72996;40.206;44.498;2024-02-14T02:41:09;31.20;;;12.38;;
83115;SDS011;72996;40.206;44.498;2024-02-14T02:43:35;29.20;;;12.85;;
83115;SDS011;72996;40.206;44.498;2024-02-14T02:46:01;28.63;;;12.57;;
83115;SDS011;72996;40.206;44.498;2024-02-14T02:48:27;25.10;;;12.23;;
83115;SDS011;72996;40.206;44.498;2024-02-14T02:50:53;27.33;;;12.35;;
83115;SDS011;72996;40.206;44.498;2024-02-14T02:53:19;26.98;;;13.15;;
83115;SDS011;72996;40.206;44.498;2024-02-14T02:55:45;27.40;;;12.43;;
83115;SDS011;72996;40.206;44.498;2024-02-14T02:58:11;26.83;;;12.18;;
83115;SDS011;72996;40.206;44.498;2024-02-14T03:00:37;26.80;;;12.75;;
83115;SDS011;72996;40.206;44.498;2024-02-14T03:03:02;26.17;;;12.00;;
83115;SDS011;72996;40.206;44.498;2024-02-14T03:05:30;23.50;;;10.63;;
83115;SDS011;72996;40.206;44.498;2024-02-14T03:07:58;27.08;;;12.00;;
83115;SDS011;72996;40.206;44.498;2024-02-14T03:10:25;25.58;;;11.18;;
83115;SDS011;72996;40.206;44.498;2024-02-14T03:12:51;27.38;;;11.32;;
83115;SDS011;72996;40.206;44.498;2024-02-14T03:15:17;25.90;;;10.95;;
83115;SDS011;72996;40.206;44.498;2024-02-14T03:17:45;23.80;;;11.07;;
83115;SDS011;72996;40.206;44.498;2024-02-14T03:20:11;25.67;;;11.63;;
83115;SDS011;72996;40.206;44.498;2024-02-14T03:22:38;22.65;;;10.27;;
83115;SDS011;72996;40.206;44.498;2024-02-14T03:25:12;22.63;;;10.75;;
83115;SDS011;72996;40.206;44.498;2024-02-14T03:27:45;22.58;;;11.23;;
83115;SDS011;72996;40.206;44.498;2024-02-14T03:30:12;25.05;;;11.27;;
83115;SDS011;72996;40.206;44.498;2024-02-14T03:32:44;25.13;;;10.52;;
83115;SDS011;72996;40.206;44.498;2024-02-14T03:35:13;24.95;;;11.15;;
83115;SDS011;72996;40.206;44.498;2024-02-14T03:37:42;27.08;;;12.38;;
83115;SDS011;72996;40.206;44.498;2024-02-14T03:40:12;27.23;;;11.63;;
83115;SDS011;72996;40.206;44.498;2024-02-14T03:42:38;29.40;;;12.50;;
83115;SDS011;72996;40.206;44.498;2024-02-14T03:45:05;23.55;;;11.15;;
83115;SDS011;72996;40.206;44.498;2024-02-14T03:47:32;25.83;;;12.07;;
83115;SDS011;72996;40.206;44.498;2024-02-14T03:49:58;27.50;;;13.52;;
83115;SDS011;72996;40.206;44.498;2024-02-14T03:52:24;40.38;;;17.50;;
83115;SDS011;72996;40.206;44.498;2024-02-14T03:54:51;41.13;;;18.50;;
83115;SDS011;72996;40.206;44.498;2024-02-14T03:57:17;28.25;;;14.85;;
83115;SDS011;72996;40.206;44.498;2024-02-14T03:59:43;30.80;;;13.90;;
83115;SDS011;72996;40.206;44.498;2024-02-14T04:02:09;35.50;;;15.02;;
83115;SDS011;72996;40.206;44.498;2024-02-14T04:04:40;31.80;;;13.98;;
83115;SDS011;72996;40.206;44.498;2024-02-14T04:07:07;34.05;;;14.70;;
83115;SDS011;72996;40.206;44.498;2024-02-14T04:09:33;34.25;;;13.88;;
83115;SDS011;72996;40.206;44.498;2024-02-14T04:12:00;30.73;;;14.20;;
83115;SDS011;72996;40.206;44.498;2024-02-14T04:14:25;31.35;;;14.63;;
83115;SDS011;72996;40.206;44.498;2024-02-14T04:16:51;31.90;;;13.55;;
83115;SDS011;72996;40.206;44.498;2024-02-14T04:19:17;35.15;;;14.95;;
83115;SDS011;72996;40.206;44.498;2024-02-14T04:21:43;36.47;;;14.73;;
83115;SDS011;72996;40.206;44.498;2024-02-14T04:24:09;36.38;;;14.13;;
83115;SDS011;72996;40.206;44.498;2024-02-14T04:26:35;30.80;;;12.98;;
83115;SDS011;72996;40.206;44.498;2024-02-14T04:29:01;27.80;;;12.80;;
83115;SDS011;72996;40.206;44.498;2024-02-14T04:31:27;26.80;;;11.38;;
83115;SDS011;72996;40.206;44.498;2024-02-14T04:33:54;35.85;;;13.05;;
83115;SDS011;72996;40.206;44.498;2024-02-14T04:36:21;27.80;;;11.57;;
83115;SDS011;72996;40.206;44.498;2024-02-14T04:38:48;30.50;;;13.95;;
83115;SDS011;72996;40.206;44.498;2024-02-14T04:41:14;29.92;;;13.00;;
83115;SDS011;72996;40.206;44.498;2024-02-14T04:43:41;23.52;;;11.77;;
83115;SDS011;72996;40.206;44.498;2024-02-14T04:46:07;33.35;;;12.80;;
83115;SDS011;72996;40.206;44.498;2024-02-14T04:48:33;30.83;;;12.50;;
83115;SDS011;72996;40.206;44.498;2024-02-14T04:51:00;23.20;;;12.07;;
83115;SDS011;72996;40.206;44.498;2024-02-14T04:53:26;28.35;;;12.18;;
83115;SDS011;72996;40.206;44.498;2024-02-14T04:55:52;31.33;;;12.70;;
83115;SDS011;72996;40.206;44.498;2024-02-14T04:58:18;23.08;;;11.32;;
83115;SDS011;72996;40.206;44.498;2024-02-14T05:00:44;23.95;;;10.45;;
83115;SDS011;72996;40.206;44.498;2024-02-14T05:03:10;23.88;;;10.95;;
83115;SDS011;72996;40.206;44.498;2024-02-14T05:05:36;27.63;;;11.93;;
83115;SDS011;72996;40.206;44.498;2024-02-14T05:08:01;27.45;;;10.43;;
83115;SDS011;72996;40.206;44.498;2024-02-14T05:10:28;29.42;;;12.15;;
83115;SDS011;72996;40.206;44.498;2024-02-14T05:12:53;29.73;;;12.45;;
83115;SDS011;72996;40.206;44.498;2024-02-14T05:15:20;35.30;;;13.10;;
83115;SDS011;72996;40.206;44.498;2024-02-14T05:17:45;29.15;;;12.35;;
83115;SDS011;72996;40.206;44.498;2024-02-14T05:20:11;32.78;;;13.57;;
83115;SDS011;72996;40.206;44.498;2024-02-14T05:22:37;35.03;;;14.38;;
83115;SDS011;72996;40.206;44.498;2024-02-14T05:25:04;31.33;;;12.98;;
83115;SDS011;72996;40.206;44.498;2024-02-14T05:27:30;32.05;;;13.23;;
83115;SDS011;72996;40.206;44.498;2024-02-14T05:29:56;30.60;;;13.75;;
83115;SDS011;72996;40.206;44.498;2024-02-14T05:32:22;29.50;;;13.23;;
83115;SDS011;72996;40.206;44.498;2024-02-14T05:34:48;35.85;;;14.38;;
83115;SDS011;72996;40.206;44.498;2024-02-14T05:37:15;30.10;;;15.30;;
83115;SDS011;72996;40.206;44.498;2024-02-14T05:39:41;37.92;;;14.98;;
83115;SDS011;72996;40.206;44.498;2024-02-14T05:42:07;35.70;;;15.27;;
83115;SDS011;72996;40.206;44.498;2024-02-14T05:44:33;36.75;;;16.35;;
83115;SDS011;72996;40.206;44.498;2024-02-14T05:46:59;35.58;;;16.77;;
83115;SDS011;72996;40.206;44.498;2024-02-14T05:49:25;41.95;;;19.63;;
83115;SDS011;72996;40.206;44.498;2024-02-14T05:51:51;50.92;;;23.65;;
83115;SDS011;72996;40.206;44.498;2024-02-14T05:54:18;46.28;;;19.55;;
83115;SDS011;72996;40.206;44.498;2024-02-14T05:56:45;50.35;;;21.48;;
83115;SDS011;72996;40.206;44.498;2024-02-14T05:59:11;43.20;;;20.27;;
83115;SDS011;72996;40.206;44.498;2024-02-14T06:01:37;44.08;;;21.00;;
83115;SDS011;72996;40.206;44.498;2024-02-14T06:04:02;44.15;;;20.80;;
83115;SDS011;72996;40.206;44.498;2024-02-14T06:06:28;47.55;;;21.40;;
83115;SDS011;72996;40.206;44.498;2024-02-14T06:08:54;43.00;;;18.60;;
83115;SDS011;72996;40.206;44.498;2024-02-14T06:11:20;47.35;;;18.33;;
83115;SDS011;72996;40.206;44.498;2024-02-14T06:13:49;40.03;;;18.48;;
83115;SDS011;72996;40.206;44.498;2024-02-14T06:16:15;42.40;;;19.25;;
83115;SDS011;72996;40.206;44.498;2024-02-14T06:18:41;43.80;;;20.13;;
83115;SDS011;72996;40.206;44.498;2024-02-14T06:21:06;51.95;;;24.48;;
83115;SDS011;72996;40.206;44.498;2024-02-14T06:23:32;48.03;;;24.02;;
83115;SDS011;72996;40.206;44.498;2024-02-14T06:25:58;52.97;;;24.35;;
83115;SDS011;72996;40.206;44.498;2024-02-14T06:28:24;55.03;;;25.38;;
83115;SDS011;72996;40.206;44.498;2024-02-14T06:30:49;44.50;;;23.60;;
83115;SDS011;72996;40.206;44.498;2024-02-14T06:33:15;47.40;;;24.40;;
83115;SDS011;72996;40.206;44.498;2024-02-14T06:35:41;55.45;;;27.35;;
83115;SDS011;72996;40.206;44.498;2024-02-14T06:38:07;68.22;;;30.05;;
83115;SDS011;72996;40.206;44.498;2024-02-14T06:40:32;60.72;;;31.08;;
83115;SDS011;72996;40.206;44.498;2024-02-14T06:42:58;60.10;;;31.98;;
83115;SDS011;72996;40.206;44.498;2024-02-14T06:45:28;65.68;;;29.98;;
83115;SDS011;72996;40.206;44.498;2024-02-14T06:47:54;58.83;;;30.77;;
83115;SDS011;72996;40.206;44.498;2024-02-14T06:50:20;66.18;;;28.92;;
83115;SDS011;72996;40.206;44.498;2024-02-14T06:52:46;62.22;;;28.42;;
83115;SDS011;72996;40.206;44.498;2024-02-14T06:55:12;60.60;;;26.95;;
83115;SDS011;72996;40.206;44.498;2024-02-14T06:57:38;56.05;;;27.67;;
83115;SDS011;72996;40.206;44.498;2024-02-14T07:00:04;58.10;;;29.42;;
83115;SDS011;72996;40.206;44.498;2024-02-14T07:02:31;59.95;;;29.33;;
83115;SDS011;72996;40.206;44.498;2024-02-14T07:04:57;65.80;;;30.27;;
83115;SDS011;72996;40.206;44.498;2024-02-14T07:07:23;59.13;;;30.77;;
83115;SDS011;72996;40.206;44.498;2024-02-14T07:09:48;51.70;;;26.42;;
83115;SDS011;72996;40.206;44.498;2024-02-14T07:12:14;61.88;;;30.00;;
83115;SDS011;72996;40.206;44.498;2024-02-14T07:14:39;58.72;;;30.83;;
83115;SDS011;72996;40.206;44.498;2024-02-14T07:17:06;57.83;;;30.63;;
83115;SDS011;72996;40.206;44.498;2024-02-14T07:19:32;53.58;;;29.88;;
83115;SDS011;72996;40.206;44.498;2024-02-14T07:21:57;59.75;;;31.30;;
83115;SDS011;72996;40.206;44.498;2024-02-14T07:24:23;65.00;;;31.50;;
83115;SDS011;72996;40.206;44.498;2024-02-14T07:26:49;59.45;;;32.05;;
83115;SDS011;72996;40.206;44.498;2024-02-14T07:29:14;62.58;;;30.63;;
83115;SDS011;72996;40.206;44.498;2024-02-14T07:31:40;56.70;;;29.02;;
83115;SDS011;72996;40.206;44.498;2024-02-14T07:34:06;56.50;;;31.38;;
83115;SDS011;72996;40.206;44.498;2024-02-14T07:36:32;66.60;;;30.45;;
83115;SDS011;72996;40.206;44.498;2024-02-14T07:38:57;55.33;;;29.35;;
83115;SDS011;72996;40.206;44.498;2024-02-14T07:41:23;63.88;;;33.78;;
83115;SDS011;72996;40.206;44.498;2024-02-14T07:43:49;55.30;;;27.90;;
83115;SDS011;72996;40.206;44.498;2024-02-14T07:46:18;58.42;;;29.38;;
83115;SDS011;72996;40.206;44.498;2024-02-14T07:48:45;63.33;;;31.50;;
83115;SDS011;72996;40.206;44.498;2024-02-14T07:51:11;59.17;;;29.95;;
83115;SDS011;72996;40.206;44.498;2024-02-14T07:53:37;58.78;;;30.50;;
83115;SDS011;72996;40.206;44.498;2024-02-14T07:56:02;52.38;;;29.17;;
83115;SDS011;72996;40.206;44.498;2024-02-14T07:58:28;61.80;;;30.80;;
83115;SDS011;72996;40.206;44.498;2024-02-14T08:00:54;53.20;;;30.27;;
83115;SDS011;72996;40.206;44.498;2024-02-14T08:03:20;61.17;;;30.17;;
83115;SDS011;72996;40.206;44.498;2024-02-14T08:05:45;57.92;;;29.65;;
83115;SDS011;72996;40.206;44.498;2024-02-14T08:08:11;55.40;;;27.88;;
83115;SDS011;72996;40.206;44.498;2024-02-14T08:10:37;54.08;;;28.98;;
83115;SDS011;72996;40.206;44.498;2024-02-14T08:13:03;52.45;;;27.48;;
83115;SDS011;72996;40.206;44.498;2024-02-14T08:15:29;54.92;;;28.33;;
83115;SDS011;72996;40.206;44.498;2024-02-14T08:17:55;53.90;;;28.00;;
83115;SDS011;72996;40.206;44.498;2024-02-14T08:20:21;48.47;;;26.40;;
83115;SDS011;72996;40.206;44.498;2024-02-14T08:22:49;52.13;;;26.83;;
83115;SDS011;72996;40.206;44.498;2024-02-14T08:25:14;47.95;;;26.50;;
83115;SDS011;72996;40.206;44.498;2024-02-14T08:27:40;52.03;;;27.58;;
83115;SDS011;72996;40.206;44.498;2024-02-14T08:30:06;50.22;;;25.40;;
83115;SDS011;72996;40.206;44.498;2024-02-14T08:32:34;45.70;;;25.15;;
83115;SDS011;72996;40.206;44.498;2024-02-14T08:34:59;50.22;;;25.58;;
83115;SDS011;72996;40.206;44.498;2024-02-14T08:37:26;51.28;;;25.85;;
83115;SDS011;72996;40.206;44.498;2024-02-14T08:39:52;52.58;;;27.15;;
83115;SDS011;72996;40.206;44.498;2024-02-14T08:42:18;71.60;;;29.20;;
83115;SDS011;72996;40.206;44.498;2024-02-14T08:44:44;50.10;;;26.25;;
83115;SDS011;72996;40.206;44.498;2024-02-14T08:47:09;54.08;;;26.75;;
83115;SDS011;72996;40.206;44.498;2024-02-14T08:49:35;50.38;;;26.42;;
83115;SDS011;72996;40.206;44.498;2024-02-14T08:52:01;54.08;;;24.33;;
83115;SDS011;72996;40.206;44.498;2024-02-14T08:54:27;46.58;;;24.98;;
83115;SDS011;72996;40.206;44.498;2024-02-14T08:56:53;47.42;;;25.42;;
83115;SDS011;72996;40.206;44.498;2024-02-14T08:59:21;43.67;;;25.35;;
83115;SDS011;72996;40.206;44.498;2024-02-14T09:01:47;47.17;;;24.92;;
83115;SDS011;72996;40.206;44.498;2024-02-14T09:04:13;43.50;;;23.83;;
83115;SDS011;72996;40.206;44.498;2024-02-14T09:06:39;48.95;;;26.85;;
83115;SDS011;72996;40.206;44.498;2024-02-14T09:09:06;47.03;;;25.38;;
83115;SDS011;72996;40.206;44.498;2024-02-14T09:11:35;47.63;;;25.45;;
83115;SDS011;72996;40.206;44.498;2024-02-14T09:14:01;50.60;;;27.90;;
83115;SDS011;72996;40.206;44.498;2024-02-14T09:16:31;50.85;;;27.40;;
83115;SDS011;72996;40.206;44.498;2024-02-14T09:19:00;43.63;;;24.52;;
83115;SDS011;72996;40.206;44.498;2024-02-14T09:21:26;50.55;;;26.92;;
83115;SDS011;72996;40.206;44.498;2024-02-14T09:23:53;45.17;;;25.23;;
83115;SDS011;72996;40.206;44.498;2024-02-14T09:26:18;47.80;;;24.08;;
83115;SDS011;72996;40.206;44.498;2024-02-14T09:28:44;47.25;;;24.20;;
83115;SDS011;72996;40.206;44.498;2024-02-14T09:31:10;45.88;;;24.30;;
83115;SDS011;72996;40.206;44.498;2024-02-14T09:33:37;51.10;;;25.25;;
83115;SDS011;72996;40.206;44.498;2024-02-14T09:36:04;51.80;;;26.52;;
83115;SDS011;72996;40.206;44.498;2024-02-14T09:38:30;45.80;;;25.67;;
83115;SDS011;72996;40.206;44.498;2024-02-14T09:41:06;44.55;;;27.05;;
83115;SDS011;72996;40.206;44.498;2024-02-14T09:43:43;49.05;;;27.52;;
83115;SDS011;72996;40.206;44.498;2024-02-14T09:46:11;45.67;;;26.38;;
83115;SDS011;72996;40.206;44.498;2024-02-14T09:48:38;55.08;;;26.77;;
83115;SDS011;72996;40.206;44.498;2024-02-14T09:51:07;50.33;;;26.48;;
83115;SDS011;72996;40.206;44.498;2024-02-14T09:53:34;49.25;;;26.58;;
83115;SDS011;72996;40.206;44.498;2024-02-14T09:56:01;56.10;;;29.77;;
83115;SDS011;72996;40.206;44.498;2024-02-14T09:58:28;65.80;;;33.10;;
83115;SDS011;72996;40.206;44.498;2024-02-14T10:00:54;62.10;;;31.40;;
83115;SDS011;72996;40.206;44.498;2024-02-14T10:03:20;60.53;;;34.08;;
83115;SDS011;72996;40.206;44.498;2024-02-14T10:05:45;62.33;;;34.92;;
83115;SDS011;72996;40.206;44.498;2024-02-14T10:08:11;65.57;;;35.90;;
83115;SDS011;72996;40.206;44.498;2024-02-14T10:10:37;62.00;;;32.15;;
83115;SDS011;72996;40.206;44.498;2024-02-14T10:13:04;68.28;;;37.45;;
83115;SDS011;72996;40.206;44.498;2024-02-14T10:15:30;64.38;;;35.20;;
83115;SDS011;72996;40.206;44.498;2024-02-14T10:17:59;64.68;;;34.67;;
83115;SDS011;72996;40.206;44.498;2024-02-14T10:20:26;64.80;;;34.15;;
83115;SDS011;72996;40.206;44.498;2024-02-14T10:22:52;65.35;;;34.75;;
83115;SDS011;72996;40.206;44.498;2024-02-14T10:25:26;63.85;;;34.10;;
83115;SDS011;72996;40.206;44.498;2024-02-14T10:27:52;59.75;;;33.47;;
83115;SDS011;72996;40.206;44.498;2024-02-14T10:30:17;66.55;;;34.60;;
83115;SDS011;72996;40.206;44.498;2024-02-14T10:32:43;74.50;;;36.78;;
83115;SDS011;72996;40.206;44.498;2024-02-14T10:35:12;72.25;;;39.00;;
83115;SDS011;72996;40.206;44.498;2024-02-14T10:37:39;68.72;;;38.38;;
83115;SDS011;72996;40.206;44.498;2024-02-14T10:40:05;73.28;;;38.10;;
83115;SDS011;72996;40.206;44.498;2024-02-14T10:42:32;83.40;;;39.17;;
83115;SDS011;72996;40.206;44.498;2024-02-14T10:45:01;86.63;;;43.08;;
83115;SDS011;72996;40.206;44.498;2024-02-14T10:47:33;77.97;;;38.33;;
83115;SDS011;72996;40.206;44.498;2024-02-14T10:50:03;72.18;;;38.03;;
83115;SDS011;72996;40.206;44.498;2024-02-14T10:52:30;78.28;;;39.95;;
83115;SDS011;72996;40.206;44.498;2024-02-14T10:55:03;71.07;;;37.40;;
83115;SDS011;72996;40.206;44.498;2024-02-14T10:57:30;70.97;;;38.08;;
83115;SDS011;72996;40.206;44.498;2024-02-14T11:00:06;68.00;;;38.10;;
83115;SDS011;72996;40.206;44.498;2024-02-14T11:02:34;71.88;;;36.85;;
83115;SDS011;72996;40.206;44.498;2024-02-14T11:05:02;74.72;;;38.22;;
83115;SDS011;72996;40.206;44.498;2024-02-14T11:07:28;63.97;;;36.05;;
83115;SDS011;72996;40.206;44.498;2024-02-14T11:10:01;69.72;;;38.90;;
83115;SDS011;72996;40.206;44.498;2024-02-14T11:12:37;72.32;;;38.22;;
83115;SDS011;72996;40.206;44.498;2024-02-14T11:15:23;77.35;;;39.63;;
83115;SDS011;72996;40.206;44.498;2024-02-14T11:18:03;74.38;;;37.72;;
83115;SDS011;72996;40.206;44.498;2024-02-14T11:20:34;79.18;;;39.95;;
83115;SDS011;72996;40.206;44.498;2024-02-14T11:23:04;75.20;;;38.22;;
83115;SDS011;72996;40.206;44.498;2024-02-14T11:25:36;73.50;;;39.13;;
83115;SDS011;72996;40.206;44.498;2024-02-14T11:30:46;71.82;;;39.38;;
83115;SDS011;72996;40.206;44.498;2024-02-14T11:35:47;88.72;;;40.33;;
83115;SDS011;72996;40.206;44.498;2024-02-14T11:38:16;76.95;;;37.00;;
83115;SDS011;72996;40.206;44.498;2024-02-14T11:40:42;68.05;;;35.90;;
83115;SDS011;72996;40.206;44.498;2024-02-14T11:43:14;69.45;;;35.88;;
83115;SDS011;72996;40.206;44.498;2024-02-14T11:45:42;65.80;;;34.83;;
83115;SDS011;72996;40.206;44.498;2024-02-14T11:48:09;73.25;;;36.90;;
83115;SDS011;72996;40.206;44.498;2024-02-14T11:50:39;68.90;;;36.30;;
83115;SDS011;72996;40.206;44.498;2024-02-14T11:53:06;71.20;;;37.25;;
83115;SDS011;72996;40.206;44.498;2024-02-14T11:55:36;68.15;;;34.15;;
83115;SDS011;72996;40.206;44.498;2024-02-14T11:58:09;62.00;;;33.75;;
83115;SDS011;72996;40.206;44.498;2024-02-14T12:00:39;61.22;;;30.02;;
83115;SDS011;72996;40.206;44.498;2024-02-14T12:03:07;58.67;;;30.70;;
83115;SDS011;72996;40.206;44.498;2024-02-14T12:05:34;66.05;;;31.90;;
83115;SDS011;72996;40.206;44.498;2024-02-14T12:08:02;58.78;;;28.17;;
83115;SDS011;72996;40.206;44.498;2024-02-14T12:12:56;60.70;;;31.25;;
83115;SDS011;72996;40.206;44.498;2024-02-14T12:15:22;68.43;;;34.53;;
83115;SDS011;72996;40.206;44.498;2024-02-14T12:17:47;60.17;;;31.70;;
83115;SDS011;72996;40.206;44.498;2024-02-14T12:20:14;62.22;;;31.52;;
83115;SDS011;72996;40.206;44.498;2024-02-14T12:22:41;61.28;;;31.48;;
83115;SDS011;72996;40.206;44.498;2024-02-14T12:25:09;60.25;;;30.90;;
83115;SDS011;72996;40.206;44.498;2024-02-14T12:27:36;53.13;;;27.90;;
83115;SDS011;72996;40.206;44.498;2024-02-14T12:30:04;56.83;;;28.95;;
83115;SDS011;72996;40.206;44.498;2024-02-14T12:34:56;59.80;;;30.25;;
83115;SDS011;72996;40.206;44.498;2024-02-14T12:37:25;66.05;;;29.20;;
83115;SDS011;72996;40.206;44.498;2024-02-14T12:39:51;64.38;;;29.85;;
83115;SDS011;72996;40.206;44.498;2024-02-14T12:42:18;62.67;;;33.05;;
83115;SDS011;72996;40.206;44.498;2024-02-14T12:44:50;56.20;;;27.75;;
83115;SDS011;72996;40.206;44.498;2024-02-14T12:47:17;57.70;;;31.05;;
83115;SDS011;72996;40.206;44.498;2024-02-14T12:49:43;55.33;;;28.40;;
83115;SDS011;72996;40.206;44.498;2024-02-14T12:52:08;59.67;;;28.75;;
83115;SDS011;72996;40.206;44.498;2024-02-14T12:54:34;56.22;;;26.95;;
83115;SDS011;72996;40.206;44.498;2024-02-14T12:57:00;63.45;;;28.95;;
83115;SDS011;72996;40.206;44.498;2024-02-14T12:59:26;64.28;;;33.03;;
83115;SDS011;72996;40.206;44.498;2024-02-14T13:01:52;60.00;;;28.17;;
83115;SDS011;72996;40.206;44.498;2024-02-14T13:04:17;62.65;;;26.98;;
83115;SDS011;72996;40.206;44.498;2024-02-14T13:06:43;60.83;;;26.23;;
83115;SDS011;72996;40.206;44.498;2024-02-14T13:09:08;56.70;;;25.63;;
83115;SDS011;72996;40.206;44.498;2024-02-14T13:11:35;59.45;;;26.55;;
83115;SDS011;72996;40.206;44.498;2024-02-14T13:14:02;56.20;;;27.27;;
83115;SDS011;72996;40.206;44.498;2024-02-14T13:16:29;59.35;;;27.58;;
83115;SDS011;72996;40.206;44.498;2024-02-14T13:18:54;60.78;;;27.42;;
83115;SDS011;72996;40.206;44.498;2024-02-14T13:21:21;63.22;;;27.25;;
83115;SDS011;72996;40.206;44.498;2024-02-14T13:23:47;56.22;;;28.55;;
83115;SDS011;72996;40.206;44.498;2024-02-14T13:26:13;54.55;;;28.27;;
83115;SDS011;72996;40.206;44.498;2024-02-14T13:28:39;65.40;;;30.40;;
83115;SDS011;72996;40.206;44.498;2024-02-14T13:31:05;60.67;;;27.55;;
83115;SDS011;72996;40.206;44.498;2024-02-14T13:33:31;53.03;;;27.55;;
83115;SDS011;72996;40.206;44.498;2024-02-14T13:35:57;56.03;;;26.90;;
83115;SDS011;72996;40.206;44.498;2024-02-14T13:38:23;56.80;;;27.90;;
83115;SDS011;72996;40.206;44.498;2024-02-14T13:40:48;58.60;;;27.42;;
83115;SDS011;72996;40.206;44.498;2024-02-14T13:43:14;66.47;;;29.05;;
83115;SDS011;72996;40.206;44.498;2024-02-14T13:45:45;60.05;;;27.30;;
83115;SDS011;72996;40.206;44.498;2024-02-14T13:48:12;57.30;;;26.27;;
83115;SDS011;72996;40.206;44.498;2024-02-14T13:50:38;67.78;;;27.92;;
83115;SDS011;72996;40.206;44.498;2024-02-14T13:53:05;57.25;;;27.25;;
83115;SDS011;72996;40.206;44.498;2024-02-14T13:55:32;53.33;;;26.50;;
83115;SDS011;72996;40.206;44.498;2024-02-14T13:57:57;52.25;;;25.58;;
83115;SDS011;72996;40.206;44.498;2024-02-14T14:00:23;50.67;;;25.80;;
83115;SDS011;72996;40.206;44.498;2024-02-14T14:02:49;54.70;;;25.05;;
83115;SDS011;72996;40.206;44.498;2024-02-14T14:05:14;52.17;;;24.67;;
83115;SDS011;72996;40.206;44.498;2024-02-14T14:07:40;50.20;;;24.95;;
83115;SDS011;72996;40.206;44.498;2024-02-14T14:10:07;53.00;;;23.95;;
83115;SDS011;72996;40.206;44.498;2024-02-14T14:12:34;47.90;;;23.48;;
83115;SDS011;72996;40.206;44.498;2024-02-14T14:15:00;47.47;;;23.10;;